createdAt,value
2018-07-22T00:00:57.105Z,20.92
2018-07-22T00:01:57.115Z,20.82
2018-07-22T00:02:57.085Z,20.92
2018-07-22T00:03:57.074Z,20.88
2018-07-22T00:04:57.068Z,20.85
2018-07-22T00:05:57.054Z,20.84
2018-07-22T00:06:57.063Z,20.77
2018-07-22T00:07:57.026Z,20.73
2018-07-22T00:08:57.017Z,20.72
2018-07-22T00:09:57.006Z,20.67
2018-07-22T00:10:56.991Z,20.67
2018-07-22T00:11:56.976Z,20.66
2018-07-22T00:12:56.983Z,20.62
2018-07-22T00:13:56.966Z,20.59
2018-07-22T00:14:56.971Z,20.57
2018-07-22T00:15:56.938Z,20.57
2018-07-22T00:16:56.924Z,20.50
2018-07-22T00:17:56.917Z,20.50
2018-07-22T00:18:56.908Z,20.54
2018-07-22T00:19:56.904Z,20.51
2018-07-22T00:20:56.873Z,20.59
2018-07-22T00:21:56.878Z,20.50
2018-07-22T00:22:56.873Z,20.51
2018-07-22T00:23:56.844Z,20.51
2018-07-22T00:24:56.852Z,20.47
2018-07-22T00:25:56.840Z,20.39
2018-07-22T00:26:56.819Z,20.26
2018-07-22T00:27:56.796Z,20.24
2018-07-22T00:28:56.800Z,20.31
2018-07-22T00:29:56.780Z,20.28
2018-07-22T00:30:56.780Z,20.29
2018-07-22T00:31:56.754Z,20.28
2018-07-22T00:32:56.748Z,20.26
2018-07-22T00:33:56.729Z,20.28
2018-07-22T00:34:56.716Z,20.24
2018-07-22T00:35:56.717Z,20.29
2018-07-22T00:36:56.717Z,20.26
2018-07-22T00:37:56.683Z,20.16
2018-07-22T00:38:56.673Z,20.26
2018-07-22T00:39:56.667Z,20.23
2018-07-22T00:40:56.647Z,20.26
2018-07-22T00:41:56.662Z,20.24
2018-07-22T00:42:56.624Z,20.11
2018-07-22T00:43:56.615Z,20.16
2018-07-22T00:44:56.601Z,20.14
2018-07-22T00:45:56.604Z,20.20
2018-07-22T00:46:56.580Z,20.13
2018-07-22T00:47:56.597Z,20.14
2018-07-22T00:48:56.553Z,20.16
2018-07-22T00:49:56.542Z,19.99
2018-07-22T00:50:56.541Z,20.03
2018-07-22T00:51:56.522Z,19.98
2018-07-22T00:52:56.510Z,20.05
2018-07-22T00:53:56.510Z,19.98
2018-07-22T00:54:56.495Z,20.02
2018-07-22T00:55:56.474Z,20.03
2018-07-22T00:56:56.480Z,20.03
2018-07-22T00:57:56.489Z,20.03
2018-07-22T00:58:56.471Z,19.98
2018-07-22T00:59:56.506Z,20.16
2018-07-22T01:00:56.418Z,19.98
2018-07-22T01:01:56.403Z,20.06
2018-07-22T01:02:56.417Z,19.98
2018-07-22T01:03:56.385Z,19.98
2018-07-22T01:04:56.390Z,20.05
2018-07-22T01:05:56.363Z,20.01
2018-07-22T01:06:56.353Z,19.98
2018-07-22T01:07:56.343Z,19.96
2018-07-22T01:08:56.333Z,19.95
2018-07-22T01:09:56.314Z,19.99
2018-07-22T01:10:56.323Z,19.92
2018-07-22T01:11:56.295Z,19.86
2018-07-22T01:12:56.276Z,19.81
2018-07-22T01:13:56.279Z,19.81
2018-07-22T01:14:56.271Z,19.83
2018-07-22T01:15:56.260Z,19.86
2018-07-22T01:16:56.224Z,19.81
2018-07-22T01:17:56.220Z,19.81
2018-07-22T01:18:56.199Z,19.86
2018-07-22T01:19:56.193Z,19.86
2018-07-22T01:20:56.198Z,19.80
2018-07-22T01:21:56.176Z,19.74
2018-07-22T01:22:56.204Z,19.78
2018-07-22T01:23:56.145Z,19.71
2018-07-22T01:24:56.131Z,19.76
2018-07-22T01:25:56.123Z,19.68
2018-07-22T01:26:56.130Z,19.66
2018-07-22T01:27:56.111Z,19.66
2018-07-22T01:28:56.097Z,19.68
2018-07-22T01:29:56.084Z,19.74
2018-07-22T01:30:56.078Z,19.63
2018-07-22T01:31:56.075Z,19.65
2018-07-22T01:32:56.047Z,19.63
2018-07-22T01:33:56.036Z,19.58
2018-07-22T01:34:56.010Z,19.59
2018-07-22T01:35:56.019Z,19.54
2018-07-22T01:36:55.991Z,19.54
2018-07-22T01:37:55.996Z,19.43
2018-07-22T01:38:55.967Z,19.37
2018-07-22T01:39:55.957Z,19.36
2018-07-22T01:40:55.941Z,19.39
2018-07-22T01:41:55.931Z,19.40
2018-07-22T01:42:55.943Z,19.43
2018-07-22T01:43:55.917Z,19.32
2018-07-22T01:44:55.889Z,19.37
2018-07-22T01:45:55.892Z,19.41
2018-07-22T01:46:55.868Z,19.37
2018-07-22T01:47:55.880Z,19.41
2018-07-22T01:48:55.851Z,19.41
2018-07-22T01:49:55.841Z,19.39
2018-07-22T01:50:55.827Z,19.36
2018-07-22T01:51:55.819Z,19.31
2018-07-22T01:52:55.825Z,19.28
2018-07-22T01:53:55.795Z,19.32
2018-07-22T01:54:55.786Z,19.23
2018-07-22T01:55:55.760Z,19.23
2018-07-22T01:56:55.752Z,19.21
2018-07-22T01:57:55.754Z,19.23
2018-07-22T01:58:55.721Z,19.13
2018-07-22T01:59:55.727Z,19.07
2018-07-22T02:00:55.702Z,19.13
2018-07-22T02:01:55.691Z,19.08
2018-07-22T02:02:55.696Z,19.00
2018-07-22T02:03:55.664Z,19.06
2018-07-22T02:04:55.666Z,19.06
2018-07-22T02:05:55.644Z,19.07
2018-07-22T02:06:55.621Z,19.22
2018-07-22T02:07:55.628Z,19.16
2018-07-22T02:08:55.598Z,19.07
2018-07-22T02:09:55.608Z,18.99
2018-07-22T02:10:55.580Z,19.02
2018-07-22T02:11:55.576Z,19.02
2018-07-22T02:12:55.555Z,19.00
2018-07-22T02:13:55.540Z,19.00
2018-07-22T02:14:55.546Z,18.99
2018-07-22T02:15:55.533Z,19.07
2018-07-22T02:16:55.506Z,18.99
2018-07-22T02:17:55.490Z,19.00
2018-07-22T02:18:55.480Z,18.99
2018-07-22T02:19:55.489Z,18.95
2018-07-22T02:20:55.515Z,18.92
2018-07-22T02:21:55.443Z,18.87
2018-07-22T02:22:55.426Z,18.84
2018-07-22T02:23:55.418Z,18.81
2018-07-22T02:24:55.428Z,18.87
2018-07-22T02:25:55.400Z,18.85
2018-07-22T02:26:55.392Z,18.82
2018-07-22T02:27:55.370Z,18.91
2018-07-22T02:28:55.357Z,18.90
2018-07-22T02:29:55.356Z,18.80
2018-07-22T02:30:55.353Z,18.82
2018-07-22T02:31:55.342Z,18.76
2018-07-22T02:32:55.305Z,18.76
2018-07-22T02:33:55.292Z,18.70
2018-07-22T02:34:55.292Z,18.70
2018-07-22T02:35:55.293Z,18.70
2018-07-22T02:36:55.264Z,18.66
2018-07-22T02:37:55.248Z,18.72
2018-07-22T02:38:55.226Z,18.60
2018-07-22T02:39:55.220Z,18.69
2018-07-22T02:40:55.226Z,18.72
2018-07-22T02:41:55.194Z,18.69
2018-07-22T02:42:55.181Z,18.65
2018-07-22T02:43:55.179Z,18.72
2018-07-22T02:44:55.156Z,18.62
2018-07-22T02:45:55.162Z,18.58
2018-07-22T02:46:55.173Z,18.62
2018-07-22T02:47:55.116Z,18.66
2018-07-22T02:48:55.102Z,18.50
2018-07-22T02:49:55.100Z,18.55
2018-07-22T02:50:55.078Z,18.55
2018-07-22T02:51:55.086Z,18.48
2018-07-22T02:52:55.053Z,18.57
2018-07-22T02:53:55.041Z,18.51
2018-07-22T02:54:55.036Z,18.48
2018-07-22T02:55:55.024Z,18.58
2018-07-22T02:56:55.026Z,18.58
2018-07-22T02:57:54.994Z,18.50
2018-07-22T02:58:54.992Z,18.54
2018-07-22T02:59:54.978Z,18.51
2018-07-22T03:00:54.964Z,18.52
2018-07-22T03:01:54.969Z,18.44
2018-07-22T03:02:54.932Z,18.42
2018-07-22T03:03:54.920Z,18.50
2018-07-22T03:04:54.904Z,18.39
2018-07-22T03:05:54.895Z,18.42
2018-07-22T03:06:54.882Z,18.41
2018-07-22T03:07:54.880Z,18.55
2018-07-22T03:08:54.856Z,18.50
2018-07-22T03:09:54.857Z,18.54
2018-07-22T03:10:54.832Z,18.42
2018-07-22T03:11:54.831Z,18.41
2018-07-22T03:12:54.826Z,18.45
2018-07-22T03:13:54.811Z,18.44
2018-07-22T03:14:54.778Z,18.37
2018-07-22T03:15:54.770Z,18.33
2018-07-22T03:16:54.758Z,18.32
2018-07-22T03:17:54.740Z,18.39
2018-07-22T03:18:54.744Z,18.23
2018-07-22T03:19:54.744Z,18.27
2018-07-22T03:20:54.697Z,18.21
2018-07-22T03:21:54.691Z,18.17
2018-07-22T03:22:54.678Z,18.21
2018-07-22T03:23:54.669Z,18.14
2018-07-22T03:24:54.664Z,18.14
2018-07-22T03:25:54.641Z,18.08
2018-07-22T03:26:54.627Z,18.15
2018-07-22T03:27:54.615Z,18.12
2018-07-22T03:28:54.596Z,18.12
2018-07-22T03:29:54.605Z,18.17
2018-07-22T03:30:54.579Z,18.26
2018-07-22T03:31:54.567Z,18.23
2018-07-22T03:32:54.547Z,18.26
2018-07-22T03:33:54.541Z,18.25
2018-07-22T03:34:54.540Z,18.23
2018-07-22T03:35:54.515Z,18.12
2018-07-22T03:36:54.495Z,18.12
2018-07-22T03:37:54.489Z,18.21
2018-07-22T03:38:54.477Z,18.10
2018-07-22T03:39:54.460Z,18.12
2018-07-22T03:40:54.467Z,18.12
2018-07-22T03:41:54.436Z,18.05
2018-07-22T03:42:54.431Z,18.18
2018-07-22T03:43:54.414Z,18.08
2018-07-22T03:44:54.392Z,18.10
2018-07-22T03:45:54.398Z,18.07
2018-07-22T03:46:54.376Z,18.05
2018-07-22T03:47:54.362Z,17.93
2018-07-22T03:48:54.362Z,17.96
2018-07-22T03:49:54.331Z,17.92
2018-07-22T03:50:54.340Z,17.93
2018-07-22T03:51:54.300Z,17.95
2018-07-22T03:52:54.295Z,17.96
2018-07-22T03:53:54.275Z,17.86
2018-07-22T03:54:54.282Z,17.82
2018-07-22T03:55:54.282Z,17.78
2018-07-22T03:56:54.245Z,17.87
2018-07-22T03:57:54.231Z,17.82
2018-07-22T03:58:54.234Z,17.92
2018-07-22T03:59:54.197Z,17.78
2018-07-22T04:00:54.185Z,17.81
2018-07-22T04:01:54.207Z,17.84
2018-07-22T04:02:54.164Z,17.84
2018-07-22T04:03:54.175Z,17.82
2018-07-22T04:04:54.147Z,17.93
2018-07-22T04:05:54.124Z,17.89
2018-07-22T04:06:54.132Z,17.81
2018-07-22T04:07:54.094Z,17.82
2018-07-22T04:08:54.106Z,17.79
2018-07-22T04:09:54.072Z,17.86
2018-07-22T04:10:54.065Z,17.87
2018-07-22T04:11:54.055Z,17.87
2018-07-22T04:12:54.038Z,17.90
2018-07-22T04:13:54.033Z,17.93
2018-07-22T04:14:54.037Z,17.95
2018-07-22T04:16:02.132Z,17.96
2018-07-22T04:17:02.173Z,17.96
2018-07-22T04:17:53.968Z,17.92
2018-07-22T04:18:53.950Z,17.87
2018-07-22T04:19:53.960Z,17.93
2018-07-22T04:20:53.920Z,17.89
2018-07-22T04:22:03.203Z,17.90
2018-07-22T04:22:53.916Z,17.89
2018-07-22T04:23:53.885Z,17.92
2018-07-22T04:24:53.867Z,17.87
2018-07-22T04:25:53.864Z,17.87
2018-07-22T04:26:53.844Z,17.92
2018-07-22T04:27:53.850Z,17.81
2018-07-22T04:28:53.822Z,17.95
2018-07-22T04:29:53.805Z,17.90
2018-07-22T04:30:53.792Z,17.96
2018-07-22T04:31:53.788Z,17.93
2018-07-22T04:32:53.763Z,18.03
2018-07-22T04:33:53.750Z,17.93
2018-07-22T04:34:53.757Z,18.03
2018-07-22T04:35:53.724Z,17.97
2018-07-22T04:36:53.708Z,18.14
2018-07-22T04:37:53.695Z,18.18
2018-07-22T04:38:53.686Z,18.11
2018-07-22T04:39:53.701Z,18.25
2018-07-22T04:40:53.662Z,18.15
2018-07-22T04:41:53.646Z,18.21
2018-07-22T04:42:53.636Z,18.26
2018-07-22T04:43:53.615Z,18.41
2018-07-22T04:44:53.609Z,18.35
2018-07-22T04:45:53.606Z,18.32
2018-07-22T04:46:53.579Z,18.45
2018-07-22T04:47:53.572Z,18.45
2018-07-22T04:48:53.549Z,18.39
2018-07-22T04:49:53.533Z,18.50
2018-07-22T04:50:53.543Z,18.54
2018-07-22T04:51:53.509Z,18.52
2018-07-22T04:52:53.502Z,18.52
2018-07-22T04:53:53.488Z,18.57
2018-07-22T04:54:53.475Z,18.57
2018-07-22T04:55:53.482Z,18.52
2018-07-22T04:56:53.457Z,18.48
2018-07-22T04:57:53.450Z,18.52
2018-07-22T04:58:53.428Z,18.50
2018-07-22T04:59:53.418Z,18.50
2018-07-22T05:00:53.418Z,18.54
2018-07-22T05:01:53.399Z,18.51
2018-07-22T05:02:53.374Z,18.48
2018-07-22T05:03:53.362Z,18.42
2018-07-22T05:04:53.345Z,18.45
2018-07-22T05:05:53.333Z,18.47
2018-07-22T05:06:53.339Z,18.51
2018-07-22T05:07:53.313Z,18.44
2018-07-22T05:08:53.302Z,18.47
2018-07-22T05:09:53.281Z,18.45
2018-07-22T05:10:53.272Z,18.54
2018-07-22T05:11:53.285Z,18.47
2018-07-22T05:12:53.247Z,18.54
2018-07-22T05:13:53.236Z,18.54
2018-07-22T05:14:53.222Z,18.50
2018-07-22T05:15:53.207Z,18.58
2018-07-22T05:16:53.227Z,18.51
2018-07-22T05:17:53.197Z,18.66
2018-07-22T05:18:53.176Z,18.63
2018-07-22T05:19:53.160Z,18.65
2018-07-22T05:20:53.148Z,18.65
2018-07-22T05:21:53.135Z,18.76
2018-07-22T05:22:53.130Z,18.73
2018-07-22T05:23:53.123Z,18.75
2018-07-22T05:24:53.104Z,18.87
2018-07-22T05:25:53.082Z,18.82
2018-07-22T05:26:53.087Z,18.90
2018-07-22T05:27:53.073Z,19.00
2018-07-22T05:28:53.058Z,19.08
2018-07-22T05:29:53.031Z,19.08
2018-07-22T05:30:53.015Z,19.18
2018-07-22T05:31:53.027Z,19.11
2018-07-22T05:32:52.996Z,19.21
2018-07-22T05:33:52.979Z,19.25
2018-07-22T05:34:52.981Z,19.14
2018-07-22T05:35:52.969Z,19.11
2018-07-22T05:36:52.943Z,19.07
2018-07-22T05:37:52.950Z,19.04
2018-07-22T05:38:52.921Z,19.08
2018-07-22T05:39:52.927Z,19.14
2018-07-22T05:40:52.899Z,19.25
2018-07-22T05:41:52.884Z,19.19
2018-07-22T05:42:52.893Z,19.21
2018-07-22T05:43:52.860Z,19.21
2018-07-22T05:44:52.863Z,19.31
2018-07-22T05:45:52.833Z,19.26
2018-07-22T05:46:52.831Z,19.23
2018-07-22T05:47:52.814Z,19.26
2018-07-22T05:48:52.794Z,19.36
2018-07-22T05:49:52.823Z,19.37
2018-07-22T05:50:52.774Z,19.33
2018-07-22T05:51:52.756Z,19.41
2018-07-22T05:52:52.749Z,19.41
2018-07-22T05:53:52.763Z,19.39
2018-07-22T05:54:52.718Z,19.39
2018-07-22T05:55:52.731Z,19.37
2018-07-22T05:56:52.695Z,19.47
2018-07-22T05:57:52.695Z,19.54
2018-07-22T05:58:52.684Z,19.51
2018-07-22T05:59:52.662Z,19.50
2018-07-22T06:00:52.650Z,19.55
2018-07-22T06:01:52.653Z,19.50
2018-07-22T06:02:52.624Z,19.55
2018-07-22T06:03:52.613Z,19.50
2018-07-22T06:04:52.601Z,19.51
2018-07-22T06:05:52.602Z,19.54
2018-07-22T06:06:52.576Z,19.58
2018-07-22T06:07:52.561Z,19.50
2018-07-22T06:08:52.552Z,19.65
2018-07-22T06:09:52.537Z,19.59
2018-07-22T06:10:52.531Z,19.65
2018-07-22T06:11:52.656Z,19.54
2018-07-22T06:12:52.502Z,19.63
2018-07-22T06:13:52.491Z,19.74
2018-07-22T06:14:52.476Z,19.66
2018-07-22T06:15:52.480Z,19.71
2018-07-22T06:16:52.456Z,19.74
2018-07-22T06:17:52.455Z,19.78
2018-07-22T06:18:52.429Z,19.83
2018-07-22T06:19:52.421Z,19.80
2018-07-22T06:20:52.419Z,19.80
2018-07-22T06:21:52.397Z,19.84
2018-07-22T06:22:52.393Z,19.81
2018-07-22T06:23:52.376Z,19.91
2018-07-22T06:24:52.367Z,19.96
2018-07-22T06:25:52.341Z,19.98
2018-07-22T06:26:52.354Z,20.01
2018-07-22T06:27:52.321Z,19.98
2018-07-22T06:28:52.306Z,20.03
2018-07-22T06:29:52.304Z,20.01
2018-07-22T06:30:52.284Z,20.01
2018-07-22T06:31:52.294Z,20.14
2018-07-22T06:32:52.273Z,20.20
2018-07-22T06:33:52.245Z,20.10
2018-07-22T06:34:52.238Z,20.16
2018-07-22T06:35:52.231Z,20.24
2018-07-22T06:36:52.213Z,20.18
2018-07-22T06:37:52.221Z,20.32
2018-07-22T06:38:52.200Z,20.35
2018-07-22T06:39:52.198Z,20.47
2018-07-22T06:40:52.166Z,20.50
2018-07-22T06:41:52.148Z,20.58
2018-07-22T06:42:52.140Z,20.61
2018-07-22T06:43:52.138Z,20.59
2018-07-22T06:44:52.132Z,20.57
2018-07-22T06:45:52.119Z,20.62
2018-07-22T06:46:52.099Z,20.70
2018-07-22T06:47:52.083Z,20.72
2018-07-22T06:48:52.104Z,20.69
2018-07-22T06:49:52.060Z,20.77
2018-07-22T06:50:52.046Z,20.79
2018-07-22T06:51:52.035Z,20.82
2018-07-22T06:52:52.020Z,20.85
2018-07-22T06:53:52.027Z,20.92
2018-07-22T06:54:52.017Z,20.98
2018-07-22T06:55:51.992Z,20.94
2018-07-22T06:56:51.996Z,20.95
2018-07-22T06:57:51.961Z,21.01
2018-07-22T06:58:51.957Z,21.12
2018-07-22T06:59:51.960Z,21.19
2018-07-22T07:00:51.955Z,21.22
2018-07-22T07:01:51.938Z,21.24
2018-07-22T07:02:51.907Z,21.32
2018-07-22T07:03:51.904Z,21.35
2018-07-22T07:04:51.903Z,21.44
2018-07-22T07:05:51.874Z,21.53
2018-07-22T07:06:51.884Z,21.46
2018-07-22T07:07:51.846Z,21.50
2018-07-22T07:08:51.838Z,21.62
2018-07-22T07:09:51.828Z,21.71
2018-07-22T07:10:51.863Z,21.71
2018-07-22T07:11:51.802Z,21.80
2018-07-22T07:13:12.803Z,21.92
2018-07-22T07:13:51.819Z,21.88
2018-07-22T07:14:51.772Z,21.94
2018-07-22T07:15:51.807Z,21.94
2018-07-22T07:16:52.687Z,21.92
2018-07-22T07:17:51.752Z,21.90
2018-07-22T07:18:51.719Z,22.07
2018-07-22T07:19:51.714Z,22.25
2018-07-22T07:20:51.708Z,22.27
2018-07-22T07:21:51.692Z,22.33
2018-07-22T07:22:51.681Z,22.45
2018-07-22T07:23:51.755Z,22.61
2018-07-22T07:24:51.698Z,22.67
2018-07-22T07:25:51.649Z,22.68
2018-07-22T07:26:51.636Z,22.62
2018-07-22T07:27:51.626Z,22.72
2018-07-22T07:28:51.612Z,22.68
2018-07-22T07:29:51.610Z,22.67
2018-07-22T07:30:51.609Z,22.72
2018-07-22T07:31:51.582Z,22.79
2018-07-22T07:32:51.577Z,22.88
2018-07-22T07:33:51.559Z,22.83
2018-07-22T07:34:51.594Z,22.97
2018-07-22T07:35:51.557Z,23.15
2018-07-22T07:36:51.526Z,23.19
2018-07-22T07:37:51.520Z,23.19
2018-07-22T07:38:51.505Z,23.22
2018-07-22T07:39:51.498Z,23.27
2018-07-22T07:40:51.485Z,23.31
2018-07-22T07:41:51.501Z,23.23
2018-07-22T07:42:51.466Z,23.20
2018-07-22T07:43:51.472Z,23.22
2018-07-22T07:44:51.441Z,23.15
2018-07-22T07:45:51.434Z,23.15
2018-07-22T07:46:51.424Z,23.17
2018-07-22T07:47:51.411Z,23.23
2018-07-22T07:48:51.426Z,23.20
2018-07-22T07:49:51.399Z,23.13
2018-07-22T07:50:51.376Z,23.36
2018-07-22T07:51:51.392Z,23.48
2018-07-22T07:52:51.393Z,23.48
2018-07-22T07:53:51.352Z,23.54
2018-07-22T07:54:51.345Z,23.60
2018-07-22T07:55:51.331Z,23.63
2018-07-22T07:56:51.316Z,23.61
2018-07-22T07:57:51.317Z,23.58
2018-07-22T07:58:51.314Z,23.55
2018-07-22T07:59:51.303Z,23.61
2018-07-22T08:00:51.277Z,23.58
2018-07-22T08:01:51.268Z,23.60
2018-07-22T08:02:51.260Z,23.53
2018-07-22T08:03:51.261Z,23.53
2018-07-22T08:04:51.255Z,23.54
2018-07-22T08:05:51.271Z,23.55
2018-07-22T08:06:51.215Z,23.65
2018-07-22T08:07:51.209Z,23.73
2018-07-22T08:08:51.343Z,23.72
2018-07-22T08:09:51.196Z,23.91
2018-07-22T08:10:51.196Z,24.05
2018-07-22T08:11:51.170Z,24.09
2018-07-22T08:12:51.161Z,24.15
2018-07-22T08:13:51.167Z,24.32
2018-07-22T08:14:51.137Z,24.20
2018-07-22T08:15:51.146Z,24.47
2018-07-22T08:16:51.116Z,24.45
2018-07-22T08:17:51.108Z,24.58
2018-07-22T08:18:51.096Z,24.65
2018-07-22T08:19:51.096Z,24.60
2018-07-22T08:20:51.142Z,24.64
2018-07-22T08:21:51.281Z,24.69
2018-07-22T08:22:51.080Z,24.68
2018-07-22T08:23:51.045Z,24.77
2018-07-22T08:24:51.055Z,24.77
2018-07-22T08:25:51.028Z,24.78
2018-07-22T08:26:51.019Z,24.87
2018-07-22T08:27:51.035Z,24.87
2018-07-22T08:28:50.996Z,24.95
2018-07-22T08:29:50.989Z,24.87
2018-07-22T08:30:51.006Z,25.00
2018-07-22T08:31:51.709Z,24.99
2018-07-22T08:32:50.958Z,25.06
2018-07-22T08:33:50.947Z,25.08
2018-07-22T08:34:50.940Z,25.13
2018-07-22T08:35:50.945Z,25.17
2018-07-22T08:36:50.919Z,25.13
2018-07-22T08:37:50.914Z,25.24
2018-07-22T08:38:50.898Z,25.18
2018-07-22T08:39:50.895Z,25.25
2018-07-22T08:40:50.898Z,25.36
2018-07-22T08:41:50.876Z,25.51
2018-07-22T08:42:50.874Z,25.60
2018-07-22T08:43:50.850Z,25.76
2018-07-22T08:44:50.844Z,25.92
2018-07-22T08:45:50.833Z,26.05
2018-07-22T08:46:50.838Z,26.09
2018-07-22T08:47:50.829Z,26.23
2018-07-22T08:48:50.804Z,26.39
2018-07-22T08:49:50.804Z,26.44
2018-07-22T08:50:50.788Z,26.50
2018-07-22T08:51:50.777Z,26.55
2018-07-22T08:52:50.784Z,26.62
2018-07-22T08:53:50.765Z,26.57
2018-07-22T08:54:50.750Z,26.76
2018-07-22T08:55:50.737Z,26.88
2018-07-22T08:56:50.726Z,27.00
2018-07-22T08:57:50.737Z,26.88
2018-07-22T08:58:50.746Z,26.92
2018-07-22T08:59:50.705Z,27.02
2018-07-22T09:00:50.694Z,27.12
2018-07-22T09:01:50.686Z,27.44
2018-07-22T09:02:50.675Z,27.85
2018-07-22T09:03:50.683Z,27.99
2018-07-22T09:04:50.656Z,28.14
2018-07-22T09:05:50.651Z,28.54
2018-07-22T09:06:50.640Z,28.73
2018-07-22T09:07:50.646Z,29.14
2018-07-22T09:08:50.621Z,29.57
2018-07-22T09:09:50.628Z,29.86
2018-07-22T09:10:50.605Z,30.26
2018-07-22T09:11:50.959Z,30.47
2018-07-22T09:12:50.592Z,30.49
2018-07-22T09:13:50.592Z,30.82
2018-07-22T09:14:50.569Z,30.88
2018-07-22T09:15:50.574Z,30.94
2018-07-22T09:16:50.555Z,30.95
2018-07-22T09:17:50.622Z,30.75
2018-07-22T09:18:50.535Z,31.09
2018-07-22T09:19:50.528Z,31.23
2018-07-22T09:20:50.539Z,31.35
2018-07-22T09:21:50.512Z,31.44
2018-07-22T09:22:50.515Z,31.43
2018-07-22T09:23:50.495Z,31.39
2018-07-22T09:24:50.497Z,31.69
2018-07-22T09:25:50.482Z,31.88
2018-07-22T09:26:50.483Z,32.10
2018-07-22T09:27:50.468Z,32.43
2018-07-22T09:28:50.467Z,32.59
2018-07-22T09:29:50.450Z,32.65
2018-07-22T09:30:50.442Z,32.81
2018-07-22T09:31:50.451Z,32.56
2018-07-22T09:32:50.445Z,32.06
2018-07-22T09:33:50.421Z,31.88
2018-07-22T09:34:50.420Z,31.92
2018-07-22T09:35:50.471Z,32.07
2018-07-22T09:36:50.408Z,32.14
2018-07-22T09:37:50.400Z,32.08
2018-07-22T09:38:50.410Z,32.13
2018-07-22T09:39:50.389Z,32.11
2018-07-22T09:40:50.384Z,32.48
2018-07-22T09:41:50.415Z,32.60
2018-07-22T09:42:50.382Z,32.59
2018-07-22T09:43:50.372Z,32.22
2018-07-22T09:44:50.386Z,31.99
2018-07-22T09:45:50.364Z,32.28
2018-07-22T09:46:50.366Z,32.29
2018-07-22T09:47:50.363Z,32.44
2018-07-22T09:48:50.380Z,32.62
2018-07-22T09:49:50.403Z,32.81
2018-07-22T09:50:50.356Z,32.63
2018-07-22T09:51:50.353Z,32.62
2018-07-22T09:52:50.371Z,32.65
2018-07-22T09:53:50.379Z,32.75
2018-07-22T09:54:50.346Z,32.87
2018-07-22T09:55:50.347Z,33.00
2018-07-22T09:56:50.360Z,33.32
2018-07-22T09:57:50.359Z,33.16
2018-07-22T09:58:50.340Z,33.23
2018-07-22T09:59:50.356Z,33.49
2018-07-22T10:00:50.341Z,33.49
2018-07-22T10:01:50.337Z,33.14
2018-07-22T10:02:50.344Z,33.03
2018-07-22T10:03:50.329Z,32.81
2018-07-22T10:04:50.419Z,32.82
2018-07-22T10:05:50.382Z,33.00
2018-07-22T10:06:50.584Z,32.96
2018-07-22T10:07:50.333Z,32.92
2018-07-22T10:08:50.340Z,33.01
2018-07-22T10:09:50.347Z,32.88
2018-07-22T10:10:50.335Z,32.97
2018-07-22T10:11:50.346Z,32.74
2018-07-22T10:12:50.471Z,33.03
2018-07-22T10:13:50.343Z,33.12
2018-07-22T10:14:50.476Z,33.19
2018-07-22T10:15:50.848Z,32.57
2018-07-22T10:16:50.399Z,32.85
2018-07-22T10:17:50.354Z,33.19
2018-07-22T10:18:50.353Z,33.59
2018-07-22T10:19:50.328Z,33.98
2018-07-22T10:20:50.328Z,34.08
2018-07-22T10:21:50.329Z,34.21
2018-07-22T10:22:50.331Z,34.31
2018-07-22T10:23:50.332Z,34.00
2018-07-22T10:24:50.349Z,34.02
2018-07-22T10:25:50.347Z,33.95
2018-07-22T10:26:50.328Z,34.06
2018-07-22T10:27:50.334Z,33.86
2018-07-22T10:28:50.331Z,33.59
2018-07-22T10:29:50.334Z,33.61
2018-07-22T10:30:50.349Z,33.78
2018-07-22T10:31:50.354Z,34.00
2018-07-22T10:32:50.342Z,34.32
2018-07-22T10:33:50.331Z,34.54
2018-07-22T10:34:50.333Z,34.47
2018-07-22T10:35:50.375Z,34.53
2018-07-22T10:36:50.351Z,34.28
2018-07-22T10:37:50.357Z,34.02
2018-07-22T10:38:50.339Z,34.22
2018-07-22T10:39:50.341Z,34.46
2018-07-22T10:40:50.406Z,34.17
2018-07-22T10:41:50.343Z,34.37
2018-07-22T10:42:50.351Z,33.94
2018-07-22T10:43:50.364Z,33.28
2018-07-22T10:44:50.347Z,33.26
2018-07-22T10:45:50.349Z,33.19
2018-07-22T10:46:50.347Z,33.63
2018-07-22T10:47:50.370Z,33.57
2018-07-22T10:48:50.353Z,33.69
2018-07-22T10:49:50.355Z,33.88
2018-07-22T10:50:50.356Z,34.06
2018-07-22T10:51:50.359Z,34.46
2018-07-22T10:52:50.359Z,34.59
2018-07-22T10:53:50.372Z,34.88
2018-07-22T10:54:50.384Z,35.10
2018-07-22T10:55:50.357Z,34.53
2018-07-22T10:56:50.357Z,34.46
2018-07-22T10:57:50.380Z,34.66
2018-07-22T10:58:50.362Z,34.58
2018-07-22T10:59:50.379Z,34.99
2018-07-22T11:00:50.377Z,34.99
2018-07-22T11:01:50.373Z,34.78
2018-07-22T11:02:50.395Z,34.97
2018-07-22T11:03:50.373Z,35.06
2018-07-22T11:04:50.377Z,35.06
2018-07-22T11:05:50.397Z,35.18
2018-07-22T11:06:50.378Z,35.21
2018-07-22T11:07:50.382Z,35.22
2018-07-22T11:08:50.387Z,35.38
2018-07-22T11:09:50.393Z,35.28
2018-07-22T11:10:50.406Z,35.33
2018-07-22T11:11:50.393Z,35.09
2018-07-22T11:12:50.396Z,34.97
2018-07-22T11:13:50.395Z,34.61
2018-07-22T11:14:50.516Z,34.16
2018-07-22T11:15:50.398Z,33.98
2018-07-22T11:16:50.403Z,34.12
2018-07-22T11:17:50.406Z,34.58
2018-07-22T11:18:50.409Z,34.40
2018-07-22T11:19:50.425Z,34.75
2018-07-22T11:20:50.422Z,34.75
2018-07-22T11:21:50.415Z,34.99
2018-07-22T11:22:50.418Z,35.00
2018-07-22T11:23:50.421Z,34.47
2018-07-22T11:24:50.421Z,34.85
2018-07-22T11:25:50.445Z,35.14
2018-07-22T11:26:50.426Z,35.16
2018-07-22T11:27:50.427Z,35.29
2018-07-22T11:28:50.500Z,35.45
2018-07-22T11:29:50.432Z,35.59
2018-07-22T11:30:50.448Z,35.65
2018-07-22T11:31:50.441Z,35.84
2018-07-22T11:32:50.440Z,35.29
2018-07-22T11:33:50.440Z,34.25
2018-07-22T11:34:50.441Z,34.10
2018-07-22T11:35:50.457Z,33.82
2018-07-22T11:36:50.450Z,33.35
2018-07-22T11:37:50.470Z,33.16
2018-07-22T11:38:50.448Z,33.23
2018-07-22T11:39:50.453Z,33.61
2018-07-22T11:40:50.451Z,34.08
2018-07-22T11:41:50.457Z,33.88
2018-07-22T11:42:50.472Z,34.12
2018-07-22T11:43:50.464Z,34.19
2018-07-22T11:44:50.467Z,34.31
2018-07-22T11:45:50.459Z,34.54
2018-07-22T11:46:50.476Z,34.72
2018-07-22T11:47:50.479Z,34.94
2018-07-22T11:48:50.469Z,35.23
2018-07-22T11:49:50.469Z,35.36
2018-07-22T11:50:50.472Z,35.52
2018-07-22T11:51:50.474Z,35.72
2018-07-22T11:52:50.499Z,35.23
2018-07-22T11:53:50.475Z,35.11
2018-07-22T11:54:50.482Z,35.09
2018-07-22T11:55:50.489Z,35.11
2018-07-22T11:56:50.486Z,34.94
2018-07-22T11:57:50.500Z,34.91
2018-07-22T11:58:50.488Z,34.66
2018-07-22T11:59:50.491Z,34.02
2018-07-22T12:00:50.495Z,34.05
2018-07-22T12:01:50.496Z,34.21
2018-07-22T12:02:50.502Z,34.75
2018-07-22T12:03:50.514Z,34.85
2018-07-22T12:04:50.504Z,34.73
2018-07-22T12:05:50.541Z,34.39
2018-07-22T12:06:50.524Z,34.00
2018-07-22T12:07:50.508Z,33.78
2018-07-22T12:08:50.511Z,33.63
2018-07-22T12:09:50.528Z,33.98
2018-07-22T12:10:50.519Z,34.19
2018-07-22T12:11:50.540Z,34.49
2018-07-22T12:12:50.528Z,34.82
2018-07-22T12:13:50.524Z,34.91
2018-07-22T12:14:50.527Z,35.15
2018-07-22T12:15:50.528Z,35.31
2018-07-22T12:16:50.536Z,35.10
2018-07-22T12:17:50.550Z,34.84
2018-07-22T12:18:50.533Z,34.56
2018-07-22T12:19:50.538Z,34.40
2018-07-22T12:20:50.554Z,34.87
2018-07-22T12:21:50.543Z,35.11
2018-07-22T12:22:50.539Z,34.88
2018-07-22T12:23:50.563Z,35.21
2018-07-22T12:24:50.549Z,35.29
2018-07-22T12:25:50.549Z,35.56
2018-07-22T12:26:50.572Z,35.71
2018-07-22T12:27:50.559Z,35.38
2018-07-22T12:28:50.581Z,35.31
2018-07-22T12:29:50.559Z,35.41
2018-07-22T12:30:50.563Z,35.00
2018-07-22T12:31:50.599Z,35.10
2018-07-22T12:32:50.605Z,34.82
2018-07-22T12:33:50.570Z,34.49
2018-07-22T12:34:50.576Z,34.30
2018-07-22T12:35:50.570Z,34.12
2018-07-22T12:36:50.581Z,33.93
2018-07-22T12:37:50.599Z,34.00
2018-07-22T12:38:50.586Z,33.65
2018-07-22T12:39:50.581Z,33.47
2018-07-22T12:40:50.598Z,32.97
2018-07-22T12:41:50.594Z,33.34
2018-07-22T12:42:50.591Z,33.45
2018-07-22T12:43:50.615Z,33.35
2018-07-22T12:44:50.591Z,33.28
2018-07-22T12:45:50.597Z,33.14
2018-07-22T12:46:50.609Z,33.35
2018-07-22T12:47:50.594Z,33.35
2018-07-22T12:48:50.599Z,33.38
2018-07-22T12:49:50.599Z,33.61
2018-07-22T12:50:50.598Z,33.63
2018-07-22T12:51:50.604Z,33.45
2018-07-22T12:52:50.623Z,33.23